sensor_id;sensor_type;location;lat;lon;timestamp;temperature;humidity
23137;DHT22;11737;50.558;7.258;2022-12-18T00:01:22;-4.50;99.90
23137;DHT22;11737;50.558;7.258;2022-12-18T00:03:50;-4.60;99.90
23137;DHT22;11737;50.558;7.258;2022-12-18T00:06:19;-4.70;99.90
23137;DHT22;11737;50.558;7.258;2022-12-18T00:09:06;-4.60;99.90
23137;DHT22;11737;50.558;7.258;2022-12-18T00:11:33;-4.60;99.90
23137;DHT22;11737;50.558;7.258;2022-12-18T00:14:01;-4.60;99.90
23137;DHT22;11737;50.558;7.258;2022-12-18T00:16:29;-4.60;99.90
23137;DHT22;11737;50.558;7.258;2022-12-18T00:18:59;-4.60;99.90
23137;DHT22;11737;50.558;7.258;2022-12-18T00:21:28;-4.70;99.90
23137;DHT22;11737;50.558;7.258;2022-12-18T00:23:57;-4.80;99.90
23137;DHT22;11737;50.558;7.258;2022-12-18T00:26:32;-4.80;99.90
23137;DHT22;11737;50.558;7.258;2022-12-18T00:29:06;-4.90;99.90
23137;DHT22;11737;50.558;7.258;2022-12-18T00:31:29;-5.00;99.90
23137;DHT22;11737;50.558;7.258;2022-12-18T00:33:57;-5.00;99.90
23137;DHT22;11737;50.558;7.258;2022-12-18T00:36:31;-5.00;99.90
23137;DHT22;11737;50.558;7.258;2022-12-18T00:39:02;-5.00;99.90
23137;DHT22;11737;50.558;7.258;2022-12-18T00:41:30;-5.10;99.90
23137;DHT22;11737;50.558;7.258;2022-12-18T00:44:17;-5.10;99.90
23137;DHT22;11737;50.558;7.258;2022-12-18T00:46:46;-5.10;99.90
23137;DHT22;11737;50.558;7.258;2022-12-18T00:49:15;-5.00;99.90
23137;DHT22;11737;50.558;7.258;2022-12-18T00:51:44;-5.10;99.90
23137;DHT22;11737;50.558;7.258;2022-12-18T00:54:11;-5.10;99.90
23137;DHT22;11737;50.558;7.258;2022-12-18T00:56:39;-5.10;99.90
23137;DHT22;11737;50.558;7.258;2022-12-18T00:59:07;-5.00;99.90
23137;DHT22;11737;50.558;7.258;2022-12-18T01:01:34;-5.00;99.90
23137;DHT22;11737;50.558;7.258;2022-12-18T01:04:03;-5.00;99.90
23137;DHT22;11737;50.558;7.258;2022-12-18T01:06:30;-5.10;99.90
23137;DHT22;11737;50.558;7.258;2022-12-18T01:08:58;-5.10;99.90
23137;DHT22;11737;50.558;7.258;2022-12-18T01:11:26;-5.10;99.90
23137;DHT22;11737;50.558;7.258;2022-12-18T01:13:54;-5.10;99.90
23137;DHT22;11737;50.558;7.258;2022-12-18T01:16:21;-5.10;99.90
23137;DHT22;11737;50.558;7.258;2022-12-18T01:18:51;-5.10;99.90
23137;DHT22;11737;50.558;7.258;2022-12-18T01:21:19;-5.10;99.90
23137;DHT22;11737;50.558;7.258;2022-12-18T01:23:55;-5.00;99.90
23137;DHT22;11737;50.558;7.258;2022-12-18T01:26:24;-5.00;99.90
23137;DHT22;11737;50.558;7.258;2022-12-18T01:28:53;-5.10;99.90
23137;DHT22;11737;50.558;7.258;2022-12-18T01:31:23;-5.10;99.90
23137;DHT22;11737;50.558;7.258;2022-12-18T01:33:51;-5.10;99.90
23137;DHT22;11737;50.558;7.258;2022-12-18T01:36:25;-5.10;99.90
23137;DHT22;11737;50.558;7.258;2022-12-18T01:38:53;-5.20;99.90
23137;DHT22;11737;50.558;7.258;2022-12-18T01:41:24;-5.20;99.90
23137;DHT22;11737;50.558;7.258;2022-12-18T01:43:57;-5.30;99.90
23137;DHT22;11737;50.558;7.258;2022-12-18T01:46:26;-5.30;99.90
23137;DHT22;11737;50.558;7.258;2022-12-18T01:49:00;-5.20;99.90
23137;DHT22;11737;50.558;7.258;2022-12-18T01:51:24;-5.10;99.90
23137;DHT22;11737;50.558;7.258;2022-12-18T01:53:53;-5.20;99.90
23137;DHT22;11737;50.558;7.258;2022-12-18T01:56:21;-5.10;99.90
23137;DHT22;11737;50.558;7.258;2022-12-18T01:59:01;-5.10;99.90
23137;DHT22;11737;50.558;7.258;2022-12-18T02:01:30;-5.20;99.90
23137;DHT22;11737;50.558;7.258;2022-12-18T02:04:20;-5.20;99.90
23137;DHT22;11737;50.558;7.258;2022-12-18T02:06:44;-5.20;99.90
23137;DHT22;11737;50.558;7.258;2022-12-18T02:09:14;-5.20;99.90
23137;DHT22;11737;50.558;7.258;2022-12-18T02:11:53;-5.20;99.90
23137;DHT22;11737;50.558;7.258;2022-12-18T02:14:27;-5.40;99.90
23137;DHT22;11737;50.558;7.258;2022-12-18T02:20:16;-5.30;99.90
23137;DHT22;11737;50.558;7.258;2022-12-18T02:22:47;-5.40;99.90
23137;DHT22;11737;50.558;7.258;2022-12-18T02:25:38;-5.40;99.90
23137;DHT22;11737;50.558;7.258;2022-12-18T02:28:04;-5.40;99.90
23137;DHT22;11737;50.558;7.258;2022-12-18T02:30:33;-5.40;99.90
23137;DHT22;11737;50.558;7.258;2022-12-18T02:33:04;-5.40;99.90
23137;DHT22;11737;50.558;7.258;2022-12-18T02:35:33;-5.40;99.90
23137;DHT22;11737;50.558;7.258;2022-12-18T02:38:03;-5.40;99.90
23137;DHT22;11737;50.558;7.258;2022-12-18T02:40:31;-5.40;99.90
23137;DHT22;11737;50.558;7.258;2022-12-18T02:43:13;-5.50;99.90
23137;DHT22;11737;50.558;7.258;2022-12-18T02:45:35;-5.60;99.90
23137;DHT22;11737;50.558;7.258;2022-12-18T02:48:04;-5.50;99.90
23137;DHT22;11737;50.558;7.258;2022-12-18T02:50:38;-5.50;99.90
23137;DHT22;11737;50.558;7.258;2022-12-18T03:04:18;-5.40;99.90
23137;DHT22;11737;50.558;7.258;2022-12-18T03:07:09;-5.40;99.90
23137;DHT22;11737;50.558;7.258;2022-12-18T03:09:38;-5.50;99.90
23137;DHT22;11737;50.558;7.258;2022-12-18T03:12:14;-5.50;99.90
23137;DHT22;11737;50.558;7.258;2022-12-18T03:17:41;-5.50;99.90
23137;DHT22;11737;50.558;7.258;2022-12-18T03:20:17;-5.40;99.90
23137;DHT22;11737;50.558;7.258;2022-12-18T03:22:42;-5.40;99.90
23137;DHT22;11737;50.558;7.258;2022-12-18T03:25:14;-5.30;99.90
23137;DHT22;11737;50.558;7.258;2022-12-18T03:27:45;-5.30;99.90
23137;DHT22;11737;50.558;7.258;2022-12-18T03:30:13;-5.20;99.90
23137;DHT22;11737;50.558;7.258;2022-12-18T03:32:51;-5.30;99.90
23137;DHT22;11737;50.558;7.258;2022-12-18T03:35:21;-5.30;99.90
23137;DHT22;11737;50.558;7.258;2022-12-18T03:37:48;-5.30;99.90
23137;DHT22;11737;50.558;7.258;2022-12-18T03:40:16;-5.20;99.90
23137;DHT22;11737;50.558;7.258;2022-12-18T03:45:38;-5.30;99.90
23137;DHT22;11737;50.558;7.258;2022-12-18T03:48:09;-5.30;99.90
23137;DHT22;11737;50.558;7.258;2022-12-18T03:53:23;-5.30;99.90
23137;DHT22;11737;50.558;7.258;2022-12-18T03:55:50;-5.30;99.90
23137;DHT22;11737;50.558;7.258;2022-12-18T03:58:22;-5.20;99.90
23137;DHT22;11737;50.558;7.258;2022-12-18T04:00:51;-5.10;99.90
23137;DHT22;11737;50.558;7.258;2022-12-18T04:03:20;-5.10;99.90
23137;DHT22;11737;50.558;7.258;2022-12-18T04:05:50;-5.20;99.90
23137;DHT22;11737;50.558;7.258;2022-12-18T04:08:19;-5.20;99.90
23137;DHT22;11737;50.558;7.258;2022-12-18T04:10:48;-5.20;99.90
23137;DHT22;11737;50.558;7.258;2022-12-18T04:13:23;-5.20;99.90
23137;DHT22;11737;50.558;7.258;2022-12-18T04:15:51;-5.40;99.90
23137;DHT22;11737;50.558;7.258;2022-12-18T04:18:19;-5.40;99.90
23137;DHT22;11737;50.558;7.258;2022-12-18T04:20:46;-5.40;99.90
23137;DHT22;11737;50.558;7.258;2022-12-18T04:23:14;-5.40;99.90
23137;DHT22;11737;50.558;7.258;2022-12-18T04:25:41;-5.40;99.90
23137;DHT22;11737;50.558;7.258;2022-12-18T04:28:09;-5.40;99.90
23137;DHT22;11737;50.558;7.258;2022-12-18T04:30:36;-5.50;99.90
23137;DHT22;11737;50.558;7.258;2022-12-18T04:33:08;-5.50;99.90
23137;DHT22;11737;50.558;7.258;2022-12-18T04:35:33;-5.50;99.90
23137;DHT22;11737;50.558;7.258;2022-12-18T04:38:01;-5.60;99.90
23137;DHT22;11737;50.558;7.258;2022-12-18T04:40:28;-5.50;99.90
23137;DHT22;11737;50.558;7.258;2022-12-18T04:42:56;-5.60;99.90
23137;DHT22;11737;50.558;7.258;2022-12-18T04:45:23;-5.60;99.90
23137;DHT22;11737;50.558;7.258;2022-12-18T04:47:51;-5.60;99.90
23137;DHT22;11737;50.558;7.258;2022-12-18T04:50:18;-5.50;99.90
23137;DHT22;11737;50.558;7.258;2022-12-18T04:52:46;-5.50;99.90
23137;DHT22;11737;50.558;7.258;2022-12-18T04:55:13;-5.50;99.90
23137;DHT22;11737;50.558;7.258;2022-12-18T04:57:41;-5.60;99.90
23137;DHT22;11737;50.558;7.258;2022-12-18T05:00:09;-5.70;99.90
23137;DHT22;11737;50.558;7.258;2022-12-18T05:02:37;-5.50;99.90
23137;DHT22;11737;50.558;7.258;2022-12-18T05:05:05;-5.40;99.90
23137;DHT22;11737;50.558;7.258;2022-12-18T05:07:32;-5.30;99.90
23137;DHT22;11737;50.558;7.258;2022-12-18T05:10:00;-5.30;99.90
23137;DHT22;11737;50.558;7.258;2022-12-18T05:12:27;-5.40;99.90
23137;DHT22;11737;50.558;7.258;2022-12-18T05:14:55;-5.40;99.90
23137;DHT22;11737;50.558;7.258;2022-12-18T05:17:22;-5.40;99.90
23137;DHT22;11737;50.558;7.258;2022-12-18T05:19:50;-5.40;99.90
23137;DHT22;11737;50.558;7.258;2022-12-18T05:22:17;-5.30;99.90
23137;DHT22;11737;50.558;7.258;2022-12-18T05:24:45;-5.40;99.90
23137;DHT22;11737;50.558;7.258;2022-12-18T05:27:12;-5.40;99.90
23137;DHT22;11737;50.558;7.258;2022-12-18T05:29:40;-5.60;99.90
23137;DHT22;11737;50.558;7.258;2022-12-18T05:32:07;-5.50;99.90
23137;DHT22;11737;50.558;7.258;2022-12-18T05:34:35;-5.40;99.90
23137;DHT22;11737;50.558;7.258;2022-12-18T05:37:02;-5.50;99.90
23137;DHT22;11737;50.558;7.258;2022-12-18T05:39:30;-5.40;99.90
23137;DHT22;11737;50.558;7.258;2022-12-18T05:41:57;-5.40;99.90
23137;DHT22;11737;50.558;7.258;2022-12-18T05:44:25;-5.50;99.90
23137;DHT22;11737;50.558;7.258;2022-12-18T05:46:52;-5.40;99.90
23137;DHT22;11737;50.558;7.258;2022-12-18T05:49:20;-5.40;99.90
23137;DHT22;11737;50.558;7.258;2022-12-18T05:51:47;-5.40;99.90
23137;DHT22;11737;50.558;7.258;2022-12-18T05:54:15;-5.50;99.90
23137;DHT22;11737;50.558;7.258;2022-12-18T05:56:42;-5.50;99.90
23137;DHT22;11737;50.558;7.258;2022-12-18T05:59:10;-5.50;99.90
23137;DHT22;11737;50.558;7.258;2022-12-18T06:01:37;-5.40;99.90
23137;DHT22;11737;50.558;7.258;2022-12-18T06:04:26;-5.40;99.90
23137;DHT22;11737;50.558;7.258;2022-12-18T06:06:55;-5.40;99.90
23137;DHT22;11737;50.558;7.258;2022-12-18T06:09:23;-5.40;99.90
23137;DHT22;11737;50.558;7.258;2022-12-18T06:11:52;-5.40;99.90
23137;DHT22;11737;50.558;7.258;2022-12-18T06:14:19;-5.40;99.90
23137;DHT22;11737;50.558;7.258;2022-12-18T06:16:47;-5.40;99.90
23137;DHT22;11737;50.558;7.258;2022-12-18T06:19:16;-5.40;99.90
23137;DHT22;11737;50.558;7.258;2022-12-18T06:21:43;-5.40;99.90
23137;DHT22;11737;50.558;7.258;2022-12-18T06:24:11;-5.40;99.90
23137;DHT22;11737;50.558;7.258;2022-12-18T06:26:39;-5.40;99.90
23137;DHT22;11737;50.558;7.258;2022-12-18T06:29:06;-5.40;99.90
23137;DHT22;11737;50.558;7.258;2022-12-18T06:31:34;-5.40;99.90
23137;DHT22;11737;50.558;7.258;2022-12-18T06:34:05;-5.40;99.90
23137;DHT22;11737;50.558;7.258;2022-12-18T06:36:32;-5.40;99.90
23137;DHT22;11737;50.558;7.258;2022-12-18T06:39:00;-5.40;99.90
23137;DHT22;11737;50.558;7.258;2022-12-18T06:41:27;-5.40;99.90
23137;DHT22;11737;50.558;7.258;2022-12-18T06:43:55;-5.50;99.90
23137;DHT22;11737;50.558;7.258;2022-12-18T06:46:22;-5.50;99.90
23137;DHT22;11737;50.558;7.258;2022-12-18T06:48:50;-5.50;99.90
23137;DHT22;11737;50.558;7.258;2022-12-18T06:51:20;-5.50;99.90
23137;DHT22;11737;50.558;7.258;2022-12-18T06:54:07;-5.50;99.90
23137;DHT22;11737;50.558;7.258;2022-12-18T06:56:35;-5.40;99.90
23137;DHT22;11737;50.558;7.258;2022-12-18T06:59:03;-5.50;99.90
23137;DHT22;11737;50.558;7.258;2022-12-18T07:01:30;-5.50;99.90
23137;DHT22;11737;50.558;7.258;2022-12-18T07:03:58;-5.40;99.90
23137;DHT22;11737;50.558;7.258;2022-12-18T07:06:26;-5.40;99.90
23137;DHT22;11737;50.558;7.258;2022-12-18T07:08:54;-5.40;99.90
23137;DHT22;11737;50.558;7.258;2022-12-18T07:11:22;-5.40;99.90
23137;DHT22;11737;50.558;7.258;2022-12-18T07:13:50;-5.30;99.90
23137;DHT22;11737;50.558;7.258;2022-12-18T07:16:19;-5.20;99.90
23137;DHT22;11737;50.558;7.258;2022-12-18T07:18:47;-5.30;99.90
23137;DHT22;11737;50.558;7.258;2022-12-18T07:21:17;-5.40;99.90
23137;DHT22;11737;50.558;7.258;2022-12-18T07:23:45;-5.40;99.90
23137;DHT22;11737;50.558;7.258;2022-12-18T07:26:16;-5.60;99.90
23137;DHT22;11737;50.558;7.258;2022-12-18T07:28:43;-5.50;99.90
23137;DHT22;11737;50.558;7.258;2022-12-18T07:31:14;-5.40;99.90
23137;DHT22;11737;50.558;7.258;2022-12-18T07:33:42;-5.40;99.90
23137;DHT22;11737;50.558;7.258;2022-12-18T07:36:11;-5.30;99.90
23137;DHT22;11737;50.558;7.258;2022-12-18T07:38:38;-5.20;99.90
23137;DHT22;11737;50.558;7.258;2022-12-18T07:41:09;-5.10;99.90
23137;DHT22;11737;50.558;7.258;2022-12-18T07:43:37;-5.00;99.90
23137;DHT22;11737;50.558;7.258;2022-12-18T07:46:06;-5.00;99.90
23137;DHT22;11737;50.558;7.258;2022-12-18T07:48:34;-5.10;99.90
23137;DHT22;11737;50.558;7.258;2022-12-18T07:51:04;-5.20;99.90
23137;DHT22;11737;50.558;7.258;2022-12-18T07:53:33;-5.20;99.90
23137;DHT22;11737;50.558;7.258;2022-12-18T07:56:04;-5.30;99.90
23137;DHT22;11737;50.558;7.258;2022-12-18T07:58:32;-5.10;99.90
23137;DHT22;11737;50.558;7.258;2022-12-18T08:03:33;-5.20;99.90
23137;DHT22;11737;50.558;7.258;2022-12-18T08:06:02;-5.10;99.90
23137;DHT22;11737;50.558;7.258;2022-12-18T08:08:30;-5.10;99.90
23137;DHT22;11737;50.558;7.258;2022-12-18T08:10:58;-5.00;99.90
23137;DHT22;11737;50.558;7.258;2022-12-18T08:13:26;-4.80;99.90
23137;DHT22;11737;50.558;7.258;2022-12-18T08:15:59;-4.70;99.90
23137;DHT22;11737;50.558;7.258;2022-12-18T08:18:28;-4.60;99.90
23137;DHT22;11737;50.558;7.258;2022-12-18T08:20:56;-4.50;99.90
23137;DHT22;11737;50.558;7.258;2022-12-18T08:23:24;-4.40;99.90
23137;DHT22;11737;50.558;7.258;2022-12-18T08:25:51;-4.40;99.90
23137;DHT22;11737;50.558;7.258;2022-12-18T08:28:19;-4.30;99.90
23137;DHT22;11737;50.558;7.258;2022-12-18T08:30:48;-4.20;99.90
23137;DHT22;11737;50.558;7.258;2022-12-18T08:33:15;-4.20;99.90
23137;DHT22;11737;50.558;7.258;2022-12-18T08:35:43;-4.10;99.90
23137;DHT22;11737;50.558;7.258;2022-12-18T08:38:10;-4.10;99.90
23137;DHT22;11737;50.558;7.258;2022-12-18T08:40:38;-3.90;99.90
23137;DHT22;11737;50.558;7.258;2022-12-18T08:43:06;-3.80;99.90
23137;DHT22;11737;50.558;7.258;2022-12-18T08:45:53;-3.70;99.90
23137;DHT22;11737;50.558;7.258;2022-12-18T08:48:20;-3.60;99.90
23137;DHT22;11737;50.558;7.258;2022-12-18T08:50:58;-3.60;99.90
23137;DHT22;11737;50.558;7.258;2022-12-18T08:53:26;-3.60;99.90
23137;DHT22;11737;50.558;7.258;2022-12-18T08:55:55;-3.50;99.90
23137;DHT22;11737;50.558;7.258;2022-12-18T08:58:23;-3.60;99.90
23137;DHT22;11737;50.558;7.258;2022-12-18T09:00:51;-3.60;99.90
23137;DHT22;11737;50.558;7.258;2022-12-18T09:03:19;-3.60;99.90
23137;DHT22;11737;50.558;7.258;2022-12-18T09:05:48;-3.40;99.90
23137;DHT22;11737;50.558;7.258;2022-12-18T09:08:16;-3.40;99.90
23137;DHT22;11737;50.558;7.258;2022-12-18T09:10:45;-3.30;99.90
23137;DHT22;11737;50.558;7.258;2022-12-18T09:13:13;-3.30;99.90
23137;DHT22;11737;50.558;7.258;2022-12-18T09:15:46;-3.30;99.90
23137;DHT22;11737;50.558;7.258;2022-12-18T09:18:16;-3.10;99.90
23137;DHT22;11737;50.558;7.258;2022-12-18T09:20:44;-2.90;99.90
23137;DHT22;11737;50.558;7.258;2022-12-18T09:23:13;-2.80;99.90
23137;DHT22;11737;50.558;7.258;2022-12-18T09:25:41;-2.70;99.90
23137;DHT22;11737;50.558;7.258;2022-12-18T09:28:13;-2.80;99.90
23137;DHT22;11737;50.558;7.258;2022-12-18T09:30:48;-2.70;99.90
23137;DHT22;11737;50.558;7.258;2022-12-18T09:33:12;-2.70;99.90
23137;DHT22;11737;50.558;7.258;2022-12-18T09:35:41;-2.70;99.90
23137;DHT22;11737;50.558;7.258;2022-12-18T09:38:11;-2.60;99.90
23137;DHT22;11737;50.558;7.258;2022-12-18T09:43:43;-2.30;99.90
23137;DHT22;11737;50.558;7.258;2022-12-18T09:46:16;-2.10;99.90
23137;DHT22;11737;50.558;7.258;2022-12-18T09:48:44;-1.90;99.90
23137;DHT22;11737;50.558;7.258;2022-12-18T09:51:17;-1.90;99.90
23137;DHT22;11737;50.558;7.258;2022-12-18T09:53:56;-1.90;99.90
23137;DHT22;11737;50.558;7.258;2022-12-18T09:56:42;-1.80;99.90
23137;DHT22;11737;50.558;7.258;2022-12-18T09:59:27;-1.70;99.90
23137;DHT22;11737;50.558;7.258;2022-12-18T10:01:55;-1.80;99.90
23137;DHT22;11737;50.558;7.258;2022-12-18T10:04:24;-1.60;99.90
23137;DHT22;11737;50.558;7.258;2022-12-18T10:06:58;-1.40;99.90
23137;DHT22;11737;50.558;7.258;2022-12-18T10:12:52;-1.10;99.90
23137;DHT22;11737;50.558;7.258;2022-12-18T10:15:34;-1.10;99.90
23137;DHT22;11737;50.558;7.258;2022-12-18T10:20:48;-1.00;99.90
23137;DHT22;11737;50.558;7.258;2022-12-18T10:26:09;-0.80;99.90
23137;DHT22;11737;50.558;7.258;2022-12-18T10:28:38;-0.70;99.90
23137;DHT22;11737;50.558;7.258;2022-12-18T10:31:07;-0.70;99.90
23137;DHT22;11737;50.558;7.258;2022-12-18T10:33:36;-0.60;99.90
23137;DHT22;11737;50.558;7.258;2022-12-18T10:36:04;-0.50;99.90
23137;DHT22;11737;50.558;7.258;2022-12-18T10:38:33;-0.50;99.90
23137;DHT22;11737;50.558;7.258;2022-12-18T10:44:11;-0.30;99.90
23137;DHT22;11737;50.558;7.258;2022-12-18T10:46:39;-0.30;99.90
23137;DHT22;11737;50.558;7.258;2022-12-18T10:49:18;-0.20;99.90
23137;DHT22;11737;50.558;7.258;2022-12-18T10:51:37;0.00;99.90
23137;DHT22;11737;50.558;7.258;2022-12-18T10:54:13;0.00;99.90
23137;DHT22;11737;50.558;7.258;2022-12-18T10:56:36;0.10;99.90
23137;DHT22;11737;50.558;7.258;2022-12-18T10:59:07;0.10;99.90
23137;DHT22;11737;50.558;7.258;2022-12-18T11:02:07;0.10;99.90
23137;DHT22;11737;50.558;7.258;2022-12-18T11:04:33;0.20;99.90
23137;DHT22;11737;50.558;7.258;2022-12-18T11:07:04;0.30;99.90
23137;DHT22;11737;50.558;7.258;2022-12-18T11:09:39;0.40;99.90
23137;DHT22;11737;50.558;7.258;2022-12-18T11:12:19;0.50;99.90
23137;DHT22;11737;50.558;7.258;2022-12-18T11:17:36;0.60;99.90
23137;DHT22;11737;50.558;7.258;2022-12-18T11:20:05;0.70;99.90
23137;DHT22;11737;50.558;7.258;2022-12-18T11:22:35;0.70;99.90
23137;DHT22;11737;50.558;7.258;2022-12-18T11:27:47;0.70;99.90
23137;DHT22;11737;50.558;7.258;2022-12-18T11:33:20;0.70;99.90
23137;DHT22;11737;50.558;7.258;2022-12-18T11:35:51;0.80;99.90
23137;DHT22;11737;50.558;7.258;2022-12-18T11:43:53;0.80;99.90
23137;DHT22;11737;50.558;7.258;2022-12-18T11:46:30;0.80;99.90
23137;DHT22;11737;50.558;7.258;2022-12-18T11:48:58;0.90;99.90
23137;DHT22;11737;50.558;7.258;2022-12-18T11:51:36;1.00;99.90
23137;DHT22;11737;50.558;7.258;2022-12-18T11:54:10;0.90;99.90
23137;DHT22;11737;50.558;7.258;2022-12-18T11:56:36;1.00;99.90
23137;DHT22;11737;50.558;7.258;2022-12-18T11:59:32;1.10;99.90
23137;DHT22;11737;50.558;7.258;2022-12-18T12:07:53;1.20;99.90
23137;DHT22;11737;50.558;7.258;2022-12-18T12:10:36;1.30;99.90
23137;DHT22;11737;50.558;7.258;2022-12-18T12:15:59;1.40;99.90
23137;DHT22;11737;50.558;7.258;2022-12-18T12:18:56;1.40;99.90
23137;DHT22;11737;50.558;7.258;2022-12-18T12:24:37;1.50;99.90
23137;DHT22;11737;50.558;7.258;2022-12-18T12:32:46;1.50;99.90
23137;DHT22;11737;50.558;7.258;2022-12-18T12:38:02;1.40;99.90
23137;DHT22;11737;50.558;7.258;2022-12-18T12:40:29;1.50;99.90
23137;DHT22;11737;50.558;7.258;2022-12-18T12:43:03;1.40;99.90
23137;DHT22;11737;50.558;7.258;2022-12-18T12:46:00;1.40;99.90
23137;DHT22;11737;50.558;7.258;2022-12-18T12:51:15;1.40;99.90
23137;DHT22;11737;50.558;7.258;2022-12-18T12:53:42;1.50;99.90
23137;DHT22;11737;50.558;7.258;2022-12-18T12:56:13;1.50;99.90
23137;DHT22;11737;50.558;7.258;2022-12-18T12:59:02;1.50;99.90
23137;DHT22;11737;50.558;7.258;2022-12-18T13:04:49;1.50;99.90
23137;DHT22;11737;50.558;7.258;2022-12-18T13:10:23;1.70;99.90
23137;DHT22;11737;50.558;7.258;2022-12-18T13:16:05;1.70;99.90
23137;DHT22;11737;50.558;7.258;2022-12-18T13:18:34;1.70;99.90
23137;DHT22;11737;50.558;7.258;2022-12-18T13:21:09;1.80;99.90
23137;DHT22;11737;50.558;7.258;2022-12-18T13:23:36;1.80;99.90
23137;DHT22;11737;50.558;7.258;2022-12-18T13:28:57;1.90;99.90
23137;DHT22;11737;50.558;7.258;2022-12-18T13:34:25;1.80;99.90
23137;DHT22;11737;50.558;7.258;2022-12-18T13:36:55;1.80;99.90
23137;DHT22;11737;50.558;7.258;2022-12-18T13:39:30;1.60;99.90
23137;DHT22;11737;50.558;7.258;2022-12-18T13:44:36;1.50;99.90
23137;DHT22;11737;50.558;7.258;2022-12-18T13:49:53;1.40;99.90
23137;DHT22;11737;50.558;7.258;2022-12-18T13:52:23;1.40;99.90
23137;DHT22;11737;50.558;7.258;2022-12-18T13:54:55;1.50;99.90
23137;DHT22;11737;50.558;7.258;2022-12-18T14:00:25;1.30;99.90
23137;DHT22;11737;50.558;7.258;2022-12-18T14:02:55;1.30;99.90
23137;DHT22;11737;50.558;7.258;2022-12-18T14:05:24;1.20;99.90
23137;DHT22;11737;50.558;7.258;2022-12-18T14:10:48;1.10;99.90
23137;DHT22;11737;50.558;7.258;2022-12-18T14:13:24;1.10;99.90
23137;DHT22;11737;50.558;7.258;2022-12-18T14:15:52;1.00;99.90
23137;DHT22;11737;50.558;7.258;2022-12-18T14:18:26;1.10;99.90
23137;DHT22;11737;50.558;7.258;2022-12-18T14:21:02;1.00;99.90
23137;DHT22;11737;50.558;7.258;2022-12-18T14:23:39;1.10;99.90
23137;DHT22;11737;50.558;7.258;2022-12-18T14:26:29;1.00;99.90
23137;DHT22;11737;50.558;7.258;2022-12-18T14:29:17;1.00;99.90
23137;DHT22;11737;50.558;7.258;2022-12-18T14:31:32;0.90;99.90
23137;DHT22;11737;50.558;7.258;2022-12-18T14:33:59;0.80;99.90
23137;DHT22;11737;50.558;7.258;2022-12-18T14:36:28;0.90;99.90
23137;DHT22;11737;50.558;7.258;2022-12-18T14:38:57;0.80;99.90
23137;DHT22;11737;50.558;7.258;2022-12-18T14:44:14;0.70;99.90
23137;DHT22;11737;50.558;7.258;2022-12-18T14:46:48;0.80;99.90
23137;DHT22;11737;50.558;7.258;2022-12-18T14:49:29;0.70;99.90
23137;DHT22;11737;50.558;7.258;2022-12-18T14:52:03;0.60;99.90
23137;DHT22;11737;50.558;7.258;2022-12-18T14:54:32;0.60;99.90
23137;DHT22;11737;50.558;7.258;2022-12-18T14:57:21;0.40;99.90
23137;DHT22;11737;50.558;7.258;2022-12-18T15:00:15;0.30;99.90
23137;DHT22;11737;50.558;7.258;2022-12-18T15:02:56;0.20;99.90
23137;DHT22;11737;50.558;7.258;2022-12-18T15:05:28;0.20;99.90
23137;DHT22;11737;50.558;7.258;2022-12-18T15:07:59;0.10;99.90
23137;DHT22;11737;50.558;7.258;2022-12-18T15:10:34;0.10;99.90
23137;DHT22;11737;50.558;7.258;2022-12-18T15:13:24;0.10;99.90
23137;DHT22;11737;50.558;7.258;2022-12-18T15:15:53;0.10;99.90
23137;DHT22;11737;50.558;7.258;2022-12-18T15:18:33;0.20;99.90
23137;DHT22;11737;50.558;7.258;2022-12-18T15:21:09;0.30;99.90
23137;DHT22;11737;50.558;7.258;2022-12-18T15:26:15;0.40;99.90
23137;DHT22;11737;50.558;7.258;2022-12-18T15:28:59;0.50;99.90
23137;DHT22;11737;50.558;7.258;2022-12-18T15:31:29;0.60;99.90
23137;DHT22;11737;50.558;7.258;2022-12-18T15:34:01;0.50;99.90
23137;DHT22;11737;50.558;7.258;2022-12-18T15:36:30;0.50;99.90
23137;DHT22;11737;50.558;7.258;2022-12-18T15:38:57;0.60;99.90
23137;DHT22;11737;50.558;7.258;2022-12-18T15:41:25;0.70;99.90
23137;DHT22;11737;50.558;7.258;2022-12-18T15:43:54;0.70;99.90
23137;DHT22;11737;50.558;7.258;2022-12-18T15:46:23;0.80;99.90
23137;DHT22;11737;50.558;7.258;2022-12-18T15:48:57;0.70;99.90
23137;DHT22;11737;50.558;7.258;2022-12-18T15:51:35;0.90;99.90
23137;DHT22;11737;50.558;7.258;2022-12-18T15:54:06;0.90;99.90
23137;DHT22;11737;50.558;7.258;2022-12-18T15:56:34;0.90;99.90
23137;DHT22;11737;50.558;7.258;2022-12-18T15:59:20;1.10;99.90
23137;DHT22;11737;50.558;7.258;2022-12-18T16:01:50;1.10;99.90
23137;DHT22;11737;50.558;7.258;2022-12-18T16:04:20;1.20;99.90
23137;DHT22;11737;50.558;7.258;2022-12-18T16:06:49;1.10;99.90
23137;DHT22;11737;50.558;7.258;2022-12-18T16:09:18;1.00;99.90
23137;DHT22;11737;50.558;7.258;2022-12-18T16:11:45;0.90;99.90
23137;DHT22;11737;50.558;7.258;2022-12-18T16:14:22;0.90;99.90
23137;DHT22;11737;50.558;7.258;2022-12-18T16:19:40;0.70;99.90
23137;DHT22;11737;50.558;7.258;2022-12-18T16:22:32;0.60;99.90
23137;DHT22;11737;50.558;7.258;2022-12-18T16:24:40;0.70;99.90
23137;DHT22;11737;50.558;7.258;2022-12-18T16:27:09;0.70;99.90
23137;DHT22;11737;50.558;7.258;2022-12-18T16:29:36;0.70;99.90
23137;DHT22;11737;50.558;7.258;2022-12-18T16:32:04;0.80;99.90
23137;DHT22;11737;50.558;7.258;2022-12-18T16:37:20;0.80;99.90
23137;DHT22;11737;50.558;7.258;2022-12-18T16:39:47;0.80;99.90
23137;DHT22;11737;50.558;7.258;2022-12-18T16:42:17;0.80;99.90
23137;DHT22;11737;50.558;7.258;2022-12-18T16:44:47;0.70;99.90
23137;DHT22;11737;50.558;7.258;2022-12-18T16:47:15;0.70;99.90
23137;DHT22;11737;50.558;7.258;2022-12-18T16:49:44;0.70;99.90
23137;DHT22;11737;50.558;7.258;2022-12-18T16:52:12;0.70;99.90
23137;DHT22;11737;50.558;7.258;2022-12-18T16:54:40;0.80;99.90
23137;DHT22;11737;50.558;7.258;2022-12-18T16:57:10;0.80;99.90
23137;DHT22;11737;50.558;7.258;2022-12-18T16:59:38;0.80;99.90
23137;DHT22;11737;50.558;7.258;2022-12-18T17:02:11;0.80;99.90
23137;DHT22;11737;50.558;7.258;2022-12-18T17:04:35;0.80;99.90
23137;DHT22;11737;50.558;7.258;2022-12-18T17:07:03;0.80;99.90
23137;DHT22;11737;50.558;7.258;2022-12-18T17:09:30;0.90;99.90
23137;DHT22;11737;50.558;7.258;2022-12-18T17:11:58;0.90;99.90
23137;DHT22;11737;50.558;7.258;2022-12-18T17:14:26;1.10;99.90
23137;DHT22;11737;50.558;7.258;2022-12-18T17:16:55;1.00;99.90
23137;DHT22;11737;50.558;7.258;2022-12-18T17:19:23;0.90;99.90
23137;DHT22;11737;50.558;7.258;2022-12-18T17:21:51;0.90;99.90
23137;DHT22;11737;50.558;7.258;2022-12-18T17:24:20;0.80;99.90
23137;DHT22;11737;50.558;7.258;2022-12-18T17:26:48;0.80;99.90
23137;DHT22;11737;50.558;7.258;2022-12-18T17:29:18;0.80;99.90
23137;DHT22;11737;50.558;7.258;2022-12-18T17:31:46;0.90;99.90
23137;DHT22;11737;50.558;7.258;2022-12-18T17:34:14;0.90;99.90
23137;DHT22;11737;50.558;7.258;2022-12-18T17:36:42;1.00;99.90
23137;DHT22;11737;50.558;7.258;2022-12-18T17:39:16;1.00;99.90
23137;DHT22;11737;50.558;7.258;2022-12-18T17:41:40;1.10;99.90
23137;DHT22;11737;50.558;7.258;2022-12-18T17:44:08;1.10;99.90
23137;DHT22;11737;50.558;7.258;2022-12-18T17:46:36;1.10;99.90
23137;DHT22;11737;50.558;7.258;2022-12-18T17:49:03;1.10;99.90
23137;DHT22;11737;50.558;7.258;2022-12-18T17:51:31;1.10;99.90
23137;DHT22;11737;50.558;7.258;2022-12-18T17:53:59;1.00;99.90